Time;durP1;ratioP1;P1;durP2;ratioP2;P2;SDS_P1;SDS_P2;PMS_P1;PMS_P2;Temp;Humidity;BMP_temperature;BMP_pressure;BME280_temperature;BME280_humidity;BME280_pressure;Samples;Min_cycle;Max_cycle;Signal;HPM_P1;HPM_P2
2022/12/10 00:00:31;;;;;;;;;57.75;46.00;;;;;5.08;100.00;100565.63;5060171;28;54537;-73
2022/12/10 00:02:56;;;;;;;;;47.50;43.75;;;;;5.13;100.00;100563.13;5078592;28;45964;-73
2022/12/10 00:05:22;;;;;;;;;52.00;43.00;;;;;5.16;100.00;100564.09;5078900;28;45451;-72
2022/12/10 00:07:47;;;;;;;;;59.00;40.75;;;;;5.17;100.00;100558.03;5078470;28;52830;-73
2022/12/10 00:10:13;;;;;;;;;60.50;42.25;;;;;5.20;100.00;100554.59;5078825;28;45423;-73
2022/12/10 00:12:38;;;;;;;;;50.00;38.00;;;;;5.22;100.00;100556.44;5078265;28;62485;-73
2022/12/10 00:15:03;;;;;;;;;65.50;45.50;;;;;5.30;100.00;100577.56;5077962;28;57602;-73
2022/12/10 00:17:29;;;;;;;;;56.50;43.50;;;;;5.28;100.00;100565.31;5079198;28;45355;-73
2022/12/10 00:19:54;;;;;;;;;60.25;45.75;;;;;5.37;100.00;100576.00;5078326;28;57063;-74
2022/12/10 00:22:19;;;;;;;;;52.75;40.75;;;;;5.39;100.00;100585.69;5078401;28;65054;-73
2022/12/10 00:24:45;;;;;;;;;54.25;42.75;;;;;5.44;100.00;100583.22;5077310;28;56593;-73
2022/12/10 00:27:11;;;;;;;;;39.50;28.75;;;;;5.47;100.00;100588.50;5074215;28;57761;-73
2022/12/10 00:29:36;;;;;;;;;49.00;42.00;;;;;5.53;100.00;100589.56;5078800;28;45489;-74
2022/12/10 00:32:05;;;;;;;;;54.75;42.75;;;;;5.52;100.00;100582.56;5059848;28;61735;-73
2022/12/10 00:34:30;;;;;;;;;56.50;43.00;;;;;5.56;100.00;100583.53;5078608;28;45402;-72
2022/12/10 00:36:56;;;;;;;;;58.75;40.75;;;;;5.61;100.00;100584.53;5078476;28;45560;-72
2022/12/10 00:39:21;;;;;;;;;49.00;37.25;;;;;5.62;100.00;100588.94;5078637;28;45388;-73
2022/12/10 00:41:47;;;;;;;;;50.00;36.25;;;;;5.62;100.00;100580.19;5078565;28;46502;-72
2022/12/10 00:44:13;;;;;;;;;49.50;40.00;;;;;5.63;100.00;100584.56;5072053;28;45422;-73
2022/12/10 00:46:38;;;;;;;;;56.25;41.25;;;;;5.65;100.00;100585.53;5078699;28;45381;-73
2022/12/10 00:49:04;;;;;;;;;44.75;37.50;;;;;5.69;100.00;100592.59;5078629;28;45373;-73
2022/12/10 00:51:29;;;;;;;;;38.75;36.25;;;;;5.64;100.00;100575.88;5077854;28;46401;-73
2022/12/10 00:53:56;;;;;;;;;41.50;29.50;;;;;5.63;100.00;100585.47;5078338;28;45268;-72
2022/12/10 00:56:24;;;;;;;;;52.75;37.50;;;;;5.65;100.00;100578.56;5078338;28;45387;-73
2022/12/10 00:58:50;;;;;;;;;34.50;29.00;;;;;5.64;100.00;100592.47;5060665;28;45256;-74
2022/12/10 01:01:17;;;;;;;;;49.50;35.00;;;;;5.64;100.00;100591.59;5078014;28;46950;-73
2022/12/10 01:03:43;;;;;;;;;39.25;33.25;;;;;5.64;100.00;100583.72;5076093;28;45395;-73
2022/12/10 01:06:20;;;;;;;;;48.75;33.00;;;;;5.62;100.00;100588.94;5077787;28;45488;-73
2022/12/10 01:08:47;;;;;;;;;37.25;33.25;;;;;5.61;100.00;100581.94;5077798;28;45544;-73
2022/12/10 01:11:14;;;;;;;;;36.75;31.00;;;;;5.62;100.00;100598.53;5078201;28;46458;-73
2022/12/10 01:13:40;;;;;;;;;42.75;32.50;;;;;5.60;100.00;100597.59;5076214;28;45342;-73
2022/12/10 01:16:07;;;;;;;;;39.75;38.25;;;;;5.59;100.00;100599.31;5077994;28;45359;-73
2022/12/10 01:18:33;;;;;;;;;42.00;30.50;;;;;5.56;100.00;100591.38;5078137;28;45328;-74
2022/12/10 01:21:17;;;;;;;;;39.00;32.00;;;;;5.56;100.00;100596.63;5077576;28;46232;-73
2022/12/10 01:23:47;;;;;;;;;40.50;34.25;;;;;5.55;100.00;100602.72;5078083;28;45465;-73
2022/12/10 01:26:15;;;;;;;;;36.00;31.50;;;;;5.57;100.00;100606.25;5077436;28;45363;-74
2022/12/10 01:28:41;;;;;;;;;39.00;34.00;;;;;5.57;100.00;100608.88;5075333;28;45440;-73
2022/12/10 01:31:14;;;;;;;;;42.75;28.75;;;;;5.50;100.00;100604.31;5076964;28;46290;-72
2022/12/10 01:33:40;;;;;;;;;37.50;30.50;;;;;5.51;100.00;100613.94;5077351;28;45506;-73
2022/12/10 01:36:12;;;;;;;;;39.25;31.25;;;;;5.50;100.00;100617.41;5077041;28;45276;-72
2022/12/10 01:38:38;;;;;;;;;39.25;30.50;;;;;5.49;100.00;100606.06;5075709;28;45486;-73
2022/12/10 01:41:04;;;;;;;;;45.50;27.75;;;;;5.52;100.00;100623.56;5077353;28;46252;-72
2022/12/10 01:43:58;;;;;;;;;43.00;30.25;;;;;5.51;100.00;100625.31;5069532;28;45363;-74
2022/12/10 01:46:27;;;;;;;;;36.50;28.25;;;;;5.48;100.00;100621.69;5074799;28;45514;-74
2022/12/10 01:48:52;;;;;;;;;32.50;27.50;;;;;5.55;100.00;100633.25;5063827;28;45412;-72
2022/12/10 01:51:18;;;;;;;;;37.75;27.00;;;;;5.52;100.00;100626.19;5059314;28;45607;-72
2022/12/10 01:53:44;;;;;;;;;40.00;32.25;;;;;5.55;100.00;100635.88;5077524;28;45451;-73
2022/12/10 01:56:10;;;;;;;;;31.25;26.75;;;;;5.61;100.00;100646.53;5056650;28;45532;-73
2022/12/10 01:58:36;;;;;;;;;37.00;28.75;;;;;5.62;100.00;100643.03;5077385;28;45514;-73
2022/12/10 02:01:13;;;;;;;;;34.50;27.75;;;;;5.67;100.00;100650.19;5077102;28;47290;-73
2022/12/10 02:03:45;;;;;;;;;44.00;27.75;;;;;5.69;100.00;100651.09;5057809;28;45279;-73
2022/12/10 02:06:19;;;;;;;;;36.25;27.75;;;;;5.70;100.00;100654.59;5058443;28;45530;-74
2022/12/10 02:09:02;;;;;;;;;39.00;27.50;;;;;5.70;100.00;100646.75;5076727;28;45435;-73
2022/12/10 02:11:34;;;;;;;;;31.50;26.25;;;;;5.66;100.00;100650.16;5075544;28;46413;-73
2022/12/10 02:14:26;;;;;;;;;33.50;26.50;;;;;5.67;100.00;100654.53;5075171;28;45557;-73
2022/12/10 02:17:05;;;;;;;;;38.00;25.75;;;;;5.66;100.00;100648.41;5044185;28;45364;-72
2022/12/10 02:19:50;;;;;;;;;27.75;21.50;;;;;5.71;100.00;100662.53;5053821;28;45465;-74
2022/12/10 02:22:17;;;;;;;;;35.50;24.00;;;;;5.70;100.00;100657.22;5068512;28;47388;-73
2022/12/10 02:24:44;;;;;;;;;29.00;25.50;;;;;5.70;100.00;100666.00;5076699;28;45360;-73
2022/12/10 02:27:21;;;;;;;;;29.25;25.75;;;;;5.66;100.00;100661.50;5057753;28;45570;-73
2022/12/10 02:29:48;;;;;;;;;34.25;26.25;;;;;5.65;100.00;100653.63;5077259;28;45462;-73
2022/12/10 02:32:17;;;;;;;;;34.75;29.25;;;;;5.71;100.00;100670.38;5059134;28;47291;-73
2022/12/10 02:34:48;;;;;;;;;33.25;27.75;;;;;5.71;100.00;100662.53;5055447;28;45260;-73
2022/12/10 02:37:28;;;;;;;;;33.50;29.75;;;;;5.65;100.00;100654.50;5058563;28;45279;-73
2022/12/10 02:39:55;;;;;;;;;35.50;27.25;;;;;5.74;100.00;100674.81;5053584;28;45540;-73
2022/12/10 02:42:23;;;;;;;;;37.25;25.00;;;;;5.73;100.00;100671.31;5057415;28;47604;-73
2022/12/10 02:44:49;;;;;;;;;29.25;25.00;;;;;5.67;100.00;100659.78;5070324;28;45400;-73
2022/12/10 02:47:15;;;;;;;;;28.50;26.50;;;;;5.73;100.00;100662.56;5076419;28;56049;-73
2022/12/10 02:49:41;;;;;;;;;26.50;23.75;;;;;5.76;100.00;100660.94;5058476;28;45546;-73
2022/12/10 02:52:12;;;;;;;;;32.75;24.75;;;;;5.75;100.00;100672.25;5073077;28;60680;-73
2022/12/10 02:54:43;;;;;;;;;22.25;17.25;;;;;5.79;100.00;100674.09;5076277;28;45358;-72
2022/12/10 02:57:11;;;;;;;;;34.50;26.50;;;;;5.77;100.00;100673.19;5076895;28;45469;-73
2022/12/10 03:00:09;;;;;;;;;36.75;26.25;;;;;5.77;100.00;100670.56;5076401;28;45393;-73
2022/12/10 03:03:05;;;;;;;;;31.25;23.00;;;;;5.74;100.00;100654.75;5057536;28;45727;-73
2022/12/10 03:05:45;;;;;;;;;33.00;22.25;;;;;5.74;100.00;100652.13;5075336;28;45424;-74
2022/12/10 03:08:13;;;;;;;;;32.00;23.50;;;;;5.81;100.00;100668.03;5076072;28;45419;-73
2022/12/10 03:10:44;;;;;;;;;33.75;27.75;;;;;5.79;100.00;100668.84;5053843;28;45249;-74
2022/12/10 03:13:12;;;;;;;;;30.50;27.00;;;;;5.79;100.00;100668.84;5075794;28;46940;-72
2022/12/10 03:15:40;;;;;;;;;28.50;24.75;;;;;5.78;100.00;100669.69;5058141;28;45280;-72
2022/12/10 03:18:07;;;;;;;;;32.00;25.25;;;;;5.76;100.00;100667.91;5076053;28;45481;-74
2022/12/10 03:20:36;;;;;;;;;45.00;25.75;;;;;5.76;100.00;100676.66;5076328;28;45500;-73
2022/12/10 03:23:02;;;;;;;;;28.00;24.50;;;;;5.78;100.00;100677.56;5076122;28;46669;-73
2022/12/10 03:25:30;;;;;;;;;27.75;20.25;;;;;5.78;100.00;100676.69;5048224;28;49675;-72
2022/12/10 03:27:56;;;;;;;;;32.75;25.25;;;;;5.74;100.00;100680.06;5064617;28;45492;-74
2022/12/10 03:30:23;;;;;;;;;32.25;22.50;;;;;5.75;100.00;100680.13;5075863;28;45364;-72
2022/12/10 03:32:49;;;;;;;;;39.00;24.00;;;;;5.80;100.00;100685.44;5057679;28;46694;-72
2022/12/10 03:35:15;;;;;;;;;27.50;20.25;;;;;5.78;100.00;100684.53;5056533;28;63677;-73
2022/12/10 03:37:41;;;;;;;;;38.25;22.25;;;;;5.75;100.00;100682.75;5076351;28;45315;-72
2022/12/10 03:40:08;;;;;;;;;29.00;22.75;;;;;5.74;100.00;100691.41;5056808;28;55798;-73
2022/12/10 03:42:35;;;;;;;;;36.25;20.75;;;;;5.70;100.00;100684.34;5056964;28;46614;-72
2022/12/10 03:45:01;;;;;;;;;32.00;22.75;;;;;5.73;100.00;100681.78;5076001;28;45333;-73
2022/12/10 03:47:26;;;;;;;;;28.25;20.00;;;;;5.66;100.00;100671.09;5075740;28;45301;-73
2022/12/10 03:49:51;;;;;;;;;25.75;23.00;;;;;5.69;100.00;100684.28;5076175;28;45315;-72
2022/12/10 03:52:17;;;;;;;;;26.75;20.25;;;;;5.65;100.00;100670.22;5075106;28;65568;-73
2022/12/10 03:54:42;;;;;;;;;20.75;18.50;;;;;5.54;100.00;100666.41;5075548;28;57294;-73
2022/12/10 03:57:07;;;;;;;;;28.25;21.00;;;;;5.65;100.00;100691.19;5073902;28;45531;-74
2022/12/10 03:59:33;;;;;;;;;26.25;21.25;;;;;5.71;100.00;100688.72;5075069;28;54960;-74
2022/12/10 04:01:58;;;;;;;;;25.75;20.75;;;;;5.69;100.00;100682.53;5074200;28;63987;-74
2022/12/10 04:04:24;;;;;;;;;39.00;22.25;;;;;5.76;100.00;100696.72;5075674;28;45358;-73
2022/12/10 04:06:49;;;;;;;;;27.75;19.00;;;;;5.73;100.00;100684.41;5075221;28;47422;-74
2022/12/10 04:09:15;;;;;;;;;30.00;19.50;;;;;5.76;100.00;100691.47;5075373;28;56834;-73
2022/12/10 04:11:41;;;;;;;;;27.25;20.00;;;;;5.82;100.00;100696.00;5075565;28;46635;-73
2022/12/10 04:16:52;;;;;;;;;28.25;18.75;;;;;5.82;100.00;100702.13;5075696;28;45443;-73
2022/12/10 04:19:18;;;;;;;;;25.75;20.00;;;;;5.84;100.00;100696.91;5075312;28;50219;-73
2022/12/10 04:27:20;;;;;;;;;23.25;17.00;;;;;5.87;100.00;100699.63;5075282;28;45206;-74
2022/12/10 04:29:46;;;;;;;;;22.50;17.25;;;;;5.88;100.00;100693.53;5057367;28;45494;-73
2022/12/10 04:32:11;;;;;;;;;25.50;19.25;;;;;5.95;100.00;100695.50;5074681;28;59129;-73
2022/12/10 04:34:36;;;;;;;;;20.50;14.25;;;;;5.96;100.00;100692.94;5073885;28;45654;-73
2022/12/10 04:37:03;;;;;;;;;14.25;12.00;;;;;5.98;100.00;100695.59;5074403;28;57515;-73
2022/12/10 04:39:28;;;;;;;;;20.75;15.00;;;;;6.00;100.00;100696.53;5077855;28;45565;-73
2022/12/10 04:41:54;;;;;;;;;21.00;13.75;;;;;5.99;100.00;100689.53;5078554;28;47713;-73
2022/12/10 04:44:19;;;;;;;;;17.00;13.75;;;;;6.01;100.00;100706.16;5077850;28;57518;-72
2022/12/10 04:46:45;;;;;;;;;23.25;16.25;;;;;5.96;100.00;100692.03;5079253;28;45945;-73
2022/12/10 04:49:11;;;;;;;;;20.75;13.75;;;;;6.00;100.00;100710.50;5078557;28;45398;-74
2022/12/10 04:51:36;;;;;;;;;18.00;15.25;;;;;5.95;100.00;100709.50;5076261;28;59021;-73
2022/12/10 04:54:02;;;;;;;;;20.75;14.00;;;;;6.01;100.00;100714.91;5078671;28;45548;-73
2022/12/10 04:56:27;;;;;;;;;24.75;19.75;;;;;5.97;100.00;100712.19;5077768;28;45497;-73
2022/12/10 04:58:55;;;;;;;;;24.50;16.25;;;;;6.01;100.00;100720.16;5078055;28;45611;-72
2022/12/10 05:01:20;;;;;;;;;22.00;17.75;;;;;6.01;100.00;100719.25;5078143;28;45806;-73
2022/12/10 05:03:45;;;;;;;;;14.50;14.25;;;;;6.01;100.00;100724.50;5075692;28;60248;-73
2022/12/10 05:06:13;;;;;;;;;23.75;18.50;;;;;5.95;100.00;100709.50;5078035;28;56313;-73
2022/12/10 05:08:39;;;;;;;;;22.75;16.00;;;;;5.99;100.00;100723.59;5077952;28;45161;-73
2022/12/10 05:11:10;;;;;;;;;19.25;13.50;;;;;6.00;100.00;100713.13;5059556;28;46900;-74
2022/12/10 05:13:36;;;;;;;;;22.50;14.50;;;;;6.01;100.00;100721.88;5078646;28;46700;-75
2022/12/10 05:16:04;;;;;;;;;26.00;19.75;;;;;6.02;100.00;100723.69;5078237;28;45573;-74
2022/12/10 05:18:29;;;;;;;;;25.00;20.00;;;;;5.92;100.00;100712.06;5077828;28;45423;-73
2022/12/10 05:20:58;;;;;;;;;19.00;17.00;;;;;5.93;100.00;100711.19;5077880;28;45714;-73
2022/12/10 05:23:29;;;;;;;;;25.00;17.75;;;;;5.95;100.00;100713.84;5044457;28;45503;-73
2022/12/10 05:26:01;;;;;;;;;16.75;14.50;;;;;5.96;100.00;100721.75;5071368;28;45408;-74
2022/12/10 05:28:28;;;;;;;;;15.25;13.25;;;;;5.93;100.00;100713.81;5077932;28;46582;-73
2022/12/10 05:30:53;;;;;;;;;18.75;14.25;;;;;5.93;100.00;100718.19;5077018;28;46595;-74
2022/12/10 05:33:18;;;;;;;;;28.50;16.25;;;;;5.95;100.00;100724.34;5078347;28;45269;-74
2022/12/10 05:35:57;;;;;;;;;24.00;12.50;;;;;5.96;100.00;100723.50;5077807;28;45219;-73
2022/12/10 05:38:23;;;;;;;;;19.00;16.25;;;;;6.01;100.00;100734.97;5077312;28;45481;-72
2022/12/10 05:40:48;;;;;;;;;27.50;19.75;;;;;6.04;100.00;100741.22;5077506;28;46523;-73
2022/12/10 05:43:14;;;;;;;;;17.50;16.25;;;;;6.01;100.00;100733.25;5077800;28;45512;-73
2022/12/10 05:45:39;;;;;;;;;17.00;16.25;;;;;6.01;100.00;100742.84;5059722;28;45377;-73
2022/12/10 05:48:06;;;;;;;;;25.25;20.75;;;;;6.00;100.00;100741.97;5076876;28;51718;-72
2022/12/10 05:50:32;;;;;;;;;20.50;16.75;;;;;6.01;100.00;100748.09;5076312;28;46742;-73
2022/12/10 05:52:58;;;;;;;;;27.00;16.50;;;;;6.02;100.00;100740.28;5077403;28;45420;-73
2022/12/10 05:55:23;;;;;;;;;23.25;16.00;;;;;6.02;100.00;100745.53;5077626;28;45335;-72
2022/12/10 05:57:49;;;;;;;;;20.75;14.00;;;;;6.00;100.00;100741.97;5077458;28;45420;-73
2022/12/10 06:00:14;;;;;;;;;14.50;14.50;;;;;5.97;100.00;100734.03;5077222;28;46837;-72
2022/12/10 06:02:40;;;;;;;;;14.00;12.75;;;;;5.98;100.00;100732.31;5077487;28;45478;-73
2022/12/10 06:05:05;;;;;;;;;17.75;13.75;;;;;6.04;100.00;100745.56;5072720;28;52180;-73
2022/12/10 06:07:31;;;;;;;;;15.50;8.75;;;;;6.01;100.00;100732.38;5075855;28;45461;-72
2022/12/10 06:09:56;;;;;;;;;12.00;9.25;;;;;6.03;100.00;100741.19;5076280;28;63545;-73
2022/12/10 06:12:21;;;;;;;;;13.75;9.75;;;;;6.08;100.00;100746.56;5077264;28;45349;-73
2022/12/10 06:14:47;;;;;;;;;9.00;8.50;;;;;6.10;100.00;100752.72;5077368;28;45230;-73
2022/12/10 06:17:12;;;;;;;;;16.50;11.25;;;;;6.11;100.00;100752.75;5076505;28;45480;-73
2022/12/10 06:19:38;;;;;;;;;12.25;12.25;;;;;6.11;100.00;100765.84;5076678;28;58590;-73
2022/12/10 06:22:03;;;;;;;;;12.25;9.00;;;;;6.11;100.00;100759.72;5077421;28;45348;-73
2022/12/10 06:24:29;;;;;;;;;13.50;10.00;;;;;6.10;100.00;100763.19;5075417;28;54305;-73
2022/12/10 06:26:54;;;;;;;;;15.50;11.75;;;;;6.13;100.00;100764.19;5077057;28;45365;-73
2022/12/10 06:29:20;;;;;;;;;22.75;15.75;;;;;6.15;100.00;100772.06;5076219;28;45826;-73
2022/12/10 06:31:45;;;;;;;;;20.50;14.50;;;;;6.16;100.00;100779.97;5076594;28;45453;-73
2022/12/10 06:34:10;;;;;;;;;14.00;14.00;;;;;6.17;100.00;100781.75;5076438;28;52949;-73
2022/12/10 06:36:36;;;;;;;;;23.25;21.00;;;;;6.12;100.00;100770.25;5069366;28;52907;-73
2022/12/10 06:39:01;;;;;;;;;19.25;15.25;;;;;6.12;100.00;100765.00;5075904;28;49135;-72
2022/12/10 06:41:27;;;;;;;;;17.50;13.75;;;;;6.17;100.00;100779.13;5076095;28;51465;-73
2022/12/10 06:43:52;;;;;;;;;20.75;16.25;;;;;6.16;100.00;100782.59;5077140;28;45483;-73
2022/12/10 06:46:20;;;;;;;;;18.75;17.75;;;;;6.15;100.00;100780.81;5075625;28;45502;-74
2022/12/10 06:48:45;;;;;;;;;14.00;13.00;;;;;6.18;100.00;100786.19;5075378;28;46641;-73
2022/12/10 06:51:12;;;;;;;;;18.25;13.25;;;;;6.21;100.00;100787.97;5076783;28;45402;-72
2022/12/10 06:53:38;;;;;;;;;18.75;12.50;;;;;6.16;100.00;100772.13;5076294;28;45399;-73
2022/12/10 06:56:05;;;;;;;;;12.75;8.25;;;;;6.15;100.00;100777.31;5058893;28;45563;-73
2022/12/10 06:58:32;;;;;;;;;17.75;13.00;;;;;6.18;100.00;100783.56;5076230;28;46198;-73
2022/12/10 07:01:14;;;;;;;;;17.00;13.00;;;;;6.16;100.00;100781.72;5076419;28;45422;-73
2022/12/10 07:03:39;;;;;;;;;11.75;9.00;;;;;6.15;100.00;100788.69;5073587;28;45265;-74
2022/12/10 07:06:06;;;;;;;;;4.00;2.00;;;;;6.20;100.00;100809.81;5075868;28;55185;-74
2022/12/10 07:08:31;;;;;;;;;12.75;9.00;;;;;6.16;100.00;100807.94;5076397;28;46384;-73
2022/12/10 07:10:57;;;;;;;;;14.50;7.25;;;;;6.20;100.00;100809.81;5075269;28;60774;-72
2022/12/10 07:13:23;;;;;;;;;9.00;6.50;;;;;6.22;100.00;100811.59;5070010;28;45446;-74
2022/12/10 07:15:48;;;;;;;;;9.75;6.75;;;;;6.17;100.00;100800.09;5070973;28;45479;-72
2022/12/10 07:18:14;;;;;;;;;8.50;5.75;;;;;6.19;100.00;100808.91;5075682;28;45581;-73
2022/12/10 07:20:39;;;;;;;;;9.50;6.00;;;;;6.21;100.00;100816.81;5070429;28;46669;-71
2022/12/10 07:23:05;;;;;;;;;9.75;8.50;;;;;6.26;100.00;100825.69;5061300;28;45662;-72
2022/12/10 07:25:30;;;;;;;;;9.50;6.50;;;;;6.23;100.00;100816.03;5059604;28;45245;-73
2022/12/10 07:27:55;;;;;;;;;15.50;8.50;;;;;6.21;100.00;100820.31;5060082;28;60441;-73
2022/12/10 07:30:21;;;;;;;;;12.25;6.00;;;;;6.23;100.00;100821.28;5040394;28;52979;-71
2022/12/10 07:32:46;;;;;;;;;5.75;5.75;;;;;6.28;100.00;100830.16;5067699;28;54292;-71
2022/12/10 07:35:12;;;;;;;;;9.75;8.75;;;;;6.28;100.00;100837.09;5042536;28;45745;-72
2022/12/10 07:37:37;;;;;;;;;6.00;6.00;;;;;6.24;100.00;100822.16;5063323;28;45448;-72
2022/12/10 07:40:03;;;;;;;;;8.00;7.00;;;;;6.25;100.00;100830.06;5065092;28;55975;-73
2022/12/10 07:42:28;;;;;;;;;8.00;8.00;;;;;6.24;100.00;100828.28;5074708;28;46743;-72
2022/12/10 07:44:53;;;;;;;;;6.25;6.25;;;;;6.30;100.00;100838.06;5071430;28;45312;-72
2022/12/10 07:47:19;;;;;;;;;9.50;5.75;;;;;6.32;100.00;100840.72;5075019;28;57892;-72
2022/12/10 07:49:45;;;;;;;;;10.00;9.00;;;;;6.27;100.00;100832.72;5073367;28;45586;-73
2022/12/10 07:52:10;;;;;;;;;16.50;12.00;;;;;6.33;100.00;100850.34;5075360;28;45568;-73
2022/12/10 07:54:35;;;;;;;;;13.00;7.25;;;;;6.30;100.00;100835.44;5075406;28;45713;-72
2022/12/10 07:57:01;;;;;;;;;12.50;8.50;;;;;6.29;100.00;100841.53;5074431;28;47448;-74
2022/12/10 07:59:26;;;;;;;;;11.50;9.25;;;;;6.37;100.00;100860.09;5059977;28;57665;-74
2022/12/10 08:01:52;;;;;;;;;13.75;8.00;;;;;6.32;100.00;100849.47;5074804;28;56022;-73
2022/12/10 08:04:17;;;;;;;;;9.25;8.75;;;;;6.37;100.00;100857.47;5070893;28;45550;-73
2022/12/10 08:06:43;;;;;;;;;9.50;8.25;;;;;6.35;100.00;100849.56;5060401;28;46768;-73
2022/12/10 08:09:09;;;;;;;;;14.50;9.25;;;;;6.34;100.00;100857.38;5060693;28;45521;-73
2022/12/10 08:11:35;;;;;;;;;13.75;9.25;;;;;6.41;100.00;100865.47;5064136;28;45588;-72
2022/12/10 08:14:00;;;;;;;;;15.50;9.50;;;;;6.38;100.00;100860.13;5078015;28;45482;-72
2022/12/10 08:16:28;;;;;;;;;19.50;9.75;;;;;6.38;100.00;100857.50;5077345;28;59045;-72
2022/12/10 08:18:55;;;;;;;;;11.00;9.50;;;;;6.40;100.00;100857.56;5078505;28;45489;-71
2022/12/10 08:21:23;;;;;;;;;13.75;10.00;;;;;6.42;100.00;100872.47;5078537;28;45609;-72
2022/12/10 08:23:48;;;;;;;;;19.75;13.00;;;;;6.49;100.00;100878.78;5078654;28;45672;-73
2022/12/10 08:26:19;;;;;;;;;12.00;9.50;;;;;6.50;100.00;100880.59;5077756;28;47851;-71
2022/12/10 08:28:45;;;;;;;;;16.50;12.75;;;;;6.47;100.00;100878.75;5078042;28;45541;-72
2022/12/10 08:31:12;;;;;;;;;12.75;12.50;;;;;6.49;100.00;100886.66;5061872;28;45465;-71
2022/12/10 08:33:38;;;;;;;;;21.25;13.75;;;;;6.50;100.00;100891.97;5078939;28;45587;-72
2022/12/10 08:36:05;;;;;;;;;18.50;11.75;;;;;6.51;100.00;100888.50;5078676;28;46508;-72
2022/12/10 08:38:31;;;;;;;;;13.25;11.75;;;;;6.52;100.00;100906.00;5057199;28;45478;-71
2022/12/10 08:40:56;;;;;;;;;13.50;12.25;;;;;6.48;100.00;100898.88;5078555;28;45419;-71
2022/12/10 08:43:21;;;;;;;;;10.25;10.25;;;;;6.54;100.00;100909.53;5077636;28;45332;-73
2022/12/10 08:45:47;;;;;;;;;12.00;10.25;;;;;6.53;100.00;100906.88;5078052;28;45653;-72
2022/12/10 08:48:12;;;;;;;;;17.25;12.50;;;;;6.49;100.00;100903.28;5077422;28;51139;-72
2022/12/10 08:50:38;;;;;;;;;17.00;14.00;;;;;6.50;100.00;100912.06;5077110;28;53086;-72
2022/12/10 08:53:03;;;;;;;;;13.00;10.50;;;;;6.46;100.00;100904.94;5076548;28;45506;-73
2022/12/10 08:55:29;;;;;;;;;15.50;11.50;;;;;6.46;100.00;100907.56;5072775;28;46239;-73
2022/12/10 08:57:56;;;;;;;;;15.25;12.00;;;;;6.49;100.00;100915.50;5076230;28;50392;-73
2022/12/10 09:00:21;;;;;;;;;15.50;10.00;;;;;6.49;100.00;100913.78;5074740;28;45480;-72
2022/12/10 09:02:47;;;;;;;;;15.25;9.25;;;;;6.46;100.00;100905.84;5062619;28;45384;-72
2022/12/10 09:05:12;;;;;;;;;17.75;9.25;;;;;6.48;100.00;100904.13;5078043;28;46627;-73
2022/12/10 09:07:38;;;;;;;;;16.75;11.25;;;;;6.53;100.00;100920.88;5076191;28;45305;-73
2022/12/10 09:10:04;;;;;;;;;14.00;12.25;;;;;6.56;100.00;100917.47;5076054;28;53397;-72
2022/12/10 09:12:29;;;;;;;;;15.25;10.75;;;;;6.57;100.00;100921.88;5072938;28;45632;-73
2022/12/10 09:14:55;;;;;;;;;14.25;12.75;;;;;6.64;100.00;100920.31;5071600;28;46488;-73
2022/12/10 09:17:21;;;;;;;;;26.00;18.00;;;;;6.68;100.00;100928.31;5063452;28;45787;-74
2022/12/10 09:19:46;;;;;;;;;16.50;12.25;;;;;6.63;100.00;100919.44;5066941;28;45416;-73
2022/12/10 09:22:11;;;;;;;;;16.25;12.75;;;;;6.75;100.00;100935.50;5066005;27;55528;-73
2022/12/10 09:24:37;;;;;;;;;13.75;13.00;;;;;6.76;100.00;100934.66;5071590;28;45529;-73
2022/12/10 09:27:03;;;;;;;;;17.25;15.75;;;;;6.76;100.00;100929.41;5074056;28;56969;-74
2022/12/10 09:29:29;;;;;;;;;18.25;12.75;;;;;6.83;100.00;100933.09;5070953;28;45360;-73
2022/12/10 09:31:54;;;;;;;;;15.75;15.00;;;;;6.87;100.00;100932.34;5064577;28;51414;-73
2022/12/10 09:34:21;;;;;;;;;15.75;14.50;;;;;6.90;100.00;100932.41;5067386;28;45578;-73
2022/12/10 09:36:46;;;;;;;;;17.25;14.50;;;;;6.93;100.00;100932.53;5276939;22;47193;-70
2022/12/10 09:39:11;;;;;;;;;23.50;16.25;;;;;6.94;100.00;100930.78;5071121;27;45626;-71
2022/12/10 09:41:56;;;;;;;;;12.00;10.50;;;;;6.98;100.00;100930.91;5076953;27;53176;-70
2022/12/10 09:44:27;;;;;;;;;21.75;14.75;;;;;7.05;100.00;100939.81;5069394;28;45916;-71
2022/12/10 09:46:59;;;;;;;;;17.00;13.25;;;;;7.05;100.00;100927.59;5073371;28;45523;-71
2022/12/10 09:49:40;;;;;;;;;15.00;13.50;;;;;7.06;100.00;100938.97;5093816;27;45385;-73
2022/12/10 09:52:11;;;;;;;;;17.25;13.75;;;;;7.06;100.00;100933.72;5075532;28;45445;-72
2022/12/10 09:54:44;;;;;;;;;20.75;12.75;;;;;7.06;100.00;100941.59;5074052;28;48741;-72
2022/12/10 09:57:30;;;;;;;;;10.25;7.00;;;;;7.07;100.00;100940.75;5066279;28;45485;-73
2022/12/10 09:59:56;;;;;;;;;20.00;13.00;;;;;7.06;100.00;100946.84;5086408;27;45559;-72
2022/12/10 10:02:25;;;;;;;;;25.00;15.00;;;;;7.10;100.00;100940.84;5075718;28;45436;-70
2022/12/10 10:04:52;;;;;;;;;17.75;13.25;;;;;7.11;100.00;100939.09;5070764;27;46687;-69
2022/12/10 10:07:27;;;;;;;;;19.25;18.50;;;;;7.14;100.00;100936.53;5087515;27;45603;-71
2022/12/10 10:09:58;;;;;;;;;17.00;12.75;;;;;7.14;100.00;100941.78;5079450;27;45548;-71
2022/12/10 10:12:27;;;;;;;;;15.75;13.75;;;;;7.11;100.00;100937.38;5061662;28;45663;-71
2022/12/10 10:14:52;;;;;;;;;12.50;7.00;;;;;7.03;100.00;100946.75;5072605;28;47897;-70
2022/12/10 10:17:49;;;;;;;;;21.50;14.50;;;;;6.95;100.00;100943.03;5071695;28;45318;-70
2022/12/10 10:20:15;;;;;;;;;18.75;14.75;;;;;6.94;100.00;100943.91;5057572;27;45621;-68
2022/12/10 10:22:40;;;;;;;;;18.50;14.50;;;;;6.94;100.00;100941.28;5069185;28;45832;-70
2022/12/10 10:25:16;;;;;;;;;27.75;18.00;;;;;6.99;100.00;100945.81;5067556;28;45581;-69
2022/12/10 10:27:41;;;;;;;;;18.50;15.00;;;;;6.99;100.00;100942.28;5065448;28;45500;-70
2022/12/10 10:30:16;;;;;;;;;22.25;19.00;;;;;6.88;100.00;100934.13;5066112;28;45265;-71
2022/12/10 10:32:41;;;;;;;;;18.25;17.50;;;;;6.86;100.00;100945.41;5054748;28;45695;-69
2022/12/10 10:35:21;;;;;;;;;23.00;13.75;;;;;6.81;100.00;100940.03;5074526;27;46265;-69
2022/12/10 10:37:46;;;;;;;;;18.00;18.00;;;;;6.81;100.00;100940.91;5070395;28;45874;-70
2022/12/10 10:40:30;;;;;;;;;18.25;16.00;;;;;6.82;100.00;100947.09;5072718;28;50242;-69
2022/12/10 10:42:57;;;;;;;;;26.75;15.75;;;;;6.86;100.00;100948.91;5074667;28;45622;-70
2022/12/10 10:45:43;;;;;;;;;20.00;15.75;;;;;6.91;100.00;100949.06;5070812;27;46123;-68
2022/12/10 10:48:23;;;;;;;;;18.25;14.00;;;;;6.86;100.00;100943.66;5077420;27;45454;-70
2022/12/10 10:51:06;;;;;;;;;17.75;14.00;;;;;6.90;100.00;100955.16;5074145;28;45585;-69
2022/12/10 10:53:43;;;;;;;;;15.50;11.00;;;;;6.93;100.00;100944.75;5076214;27;45295;-70
2022/12/10 10:56:11;;;;;;;;;18.75;18.25;;;;;6.95;100.00;100951.81;5073288;27;45934;-72
2022/12/10 10:59:06;;;;;;;;;15.00;13.25;;;;;7.04;100.00;100954.69;5074885;28;45456;-73
2022/12/10 11:01:59;;;;;;;;;17.75;13.50;;;;;7.08;100.00;100943.44;5073293;28;45481;-72
2022/12/10 11:04:28;;;;;;;;;14.00;13.00;;;;;7.10;100.00;100951.34;5079112;27;45487;-72
2022/12/10 11:06:56;;;;;;;;;20.75;14.00;;;;;7.13;100.00;100948.78;5076272;28;45627;-72
2022/12/10 11:09:26;;;;;;;;;14.00;8.00;;;;;7.20;100.00;100949.84;5075517;28;45394;-72
2022/12/10 11:11:59;;;;;;;;;13.50;11.50;;;;;7.30;100.00;100944.88;5072050;28;45492;-72
2022/12/10 11:14:31;;;;;;;;;19.75;13.25;;;;;7.39;100.00;100949.47;5074442;27;45479;-72
2022/12/10 11:17:09;;;;;;;;;18.25;14.50;;;;;7.42;100.00;100949.56;5070496;27;45665;-71
2022/12/10 11:19:34;;;;;;;;;19.50;13.50;;;;;7.42;100.00;100946.03;5074857;28;45575;-72
2022/12/10 11:22:25;;;;;;;;;23.00;14.25;;;;;7.43;100.00;100939.94;5066336;28;54110;-72
2022/12/10 11:24:51;;;;;;;;;25.25;14.50;;;;;7.38;100.00;100946.81;5089689;27;45552;-72